Terminal Aerodrome Forecast
Issued by NWS

Home | Current Version | Previous Version | Text Only | Print | Product List | Glossary Off
Versions: 1 2 3 4 5 6 7 8 9 10 11 12 13 14 15 16 17 18 19 20 21 22 23 24 25 26 27 28 29 30 31 32 33

000
FTUS43 KLOT 262322
TAFGYY
TAF
KGYY 262322Z 2700/2724 23012KT P6SM OVC025
     FM270200 23009KT 6SM BR OVC014
     FM270500 24007KT 5SM BR OVC008
     FM270700 25006KT 3SM BR OVC005
     FM271400 13005KT 4SM BR OVC007
     FM271700 04008KT P6SM SCT008 OVC010
      TEMPO 2720/2724 4SM -SHRA BR OVC007=

USA.gov is the U.S. government's official web portal to all federal, state and local government web resources and services.